< Typhoon 195901 1959 Season Typhoon 195903 >
Typhoon 195902 (SALLY)
General InformationTrack Information on Google Maps || Disaster Info.ResourceGoogle EarthGE AnimationAtom FeedGeoJSON
Detalied Best Track (Time Zone = UTC)
Year Month Day Hour Lat. Long. Pressure (hPa) Wind (kt) Class Image Chart
1959 3 4 00 6.5 165.0 1006 0 2 -- Chart
1959 3 4 06 6.0 163.8 990 0 9 -- Chart
1959 3 4 12 6.2 163.0 990 0 9 -- Chart
1959 3 4 18 6.8 162.5 990 0 9 -- Chart
1959 3 5 00 6.9 161.9 995 0 9 -- Chart
1959 3 5 06 6.8 161.1 996 0 9 -- Chart
1959 3 5 12 6.7 160.2 996 0 9 -- Chart
1959 3 5 18 6.6 159.6 996 0 9 -- Chart
1959 3 6 00 6.5 158.9 995 0 9 -- Chart
1959 3 6 06 6.4 158.2 998 0 9 -- Chart
1959 3 6 12 6.3 157.2 998 0 9 -- Chart
1959 3 6 18 6.2 156.2 998 0 9 -- Chart
1959 3 7 00 6.1 155.2 999 0 9 -- Chart
1959 3 7 06 5.9 154.2 1000 0 9 -- Chart
1959 3 7 12 5.9 153.2 1000 0 9 -- Chart
1959 3 7 18 5.9 151.9 1000 0 9 -- Chart
1959 3 8 00 5.9 150.8 1000 0 9 -- Chart
1959 3 8 06 5.9 149.3 1000 0 9 -- Chart
1959 3 8 12 5.8 147.8 1000 0 9 -- Chart
1959 3 8 18 5.8 146.3 1002 0 9 -- Chart
1959 3 9 00 6.0 145.1 1002 0 9 -- Chart
1959 3 9 06 6.6 143.2 1000 0 9 -- Chart
1959 3 9 12 6.8 141.8 1000 0 9 -- Chart
1959 3 9 18 6.9 140.4 1000 0 9 -- Chart
1959 3 10 00 7.1 139.2 1000 0 9 -- Chart
1959 3 10 06 7.3 138.4 1000 0 9 -- Chart
1959 3 10 12 7.8 137.2 1000 0 9 -- Chart
1959 3 10 18 7.9 136.2 1000 0 9 -- Chart
1959 3 11 00 8.2 135.3 1000 0 9 -- Chart
1959 3 11 06 8.4 134.8 1000 0 9 -- Chart
1959 3 11 12 8.6 134.2 1002 0 9 -- Chart
1959 3 11 18 8.8 133.8 1002 0 9 -- Chart
1959 3 12 00 9.0 133.2 1003 0 9 -- Chart
1959 3 12 06 9.1 132.7 1003 0 9 -- Chart
1959 3 12 12 9.2 131.8 1003 0 9 -- Chart
1959 3 12 18 9.3 130.9 1004 0 9 -- Chart
1959 3 13 00 9.3 130.0 1006 0 2 -- Chart
1959 3 13 06 9.4 129.3 1004 0 2 -- Chart
1959 3 13 12 9.4 128.4 1006 0 2 -- Chart
1959 3 13 18 9.5 127.5 1006 0 2 -- Chart
1959 3 14 00 9.6 126.5 1006 0 2 -- Chart
1959 3 14 06 9.6 125.5 1006 0 2 -- Chart
1959 3 14 12 9.5 124.5 1006 0 2 -- Chart
1959 3 14 18 9.0 123.5 1008 0 2 -- Chart
1959 3 15 00 9.0 122.5 1008 0 2 -- Chart
1959 3 15 06 9.2 121.6 1008 0 2 -- Chart
1959 3 15 12 9.8 120.3 1008 0 2 -- Chart
1959 3 15 18 11.0 119.0 1008 0 2 -- Chart
1959 3 16 00 11.9 117.1 1008 0 2 -- Chart
1959 3 16 06 12.2 116.7 1006 0 2 -- Chart
1959 3 16 12 12.4 116.2 1006 0 2 -- Chart
1959 3 16 18 12.5 115.8 1006 0 2 -- Chart
1959 3 17 00 12.8 115.5 1006 0 2 -- Chart
1959 3 17 06 13.0 116.9 1008 0 2 -- Chart
1959 3 17 12 13.0 117.0 1008 0 2 -- Chart
1959 3 17 18 12.2 117.0 1008 0 2 -- Chart
Japan Meteorological Agency Best Track Data | Correction Date : 1991-03-28
< Typhoon 195901 1959 Season Typhoon 195903 >

Help